sensor_id;sensor_type;location;lat;lon;timestamp;P1;durP1;ratioP1;P2;durP2;ratioP2
2099;SDS011;1055;48.854;9.302;2023-03-05T00:01:06;40.13;;;20.00;;
2099;SDS011;1055;48.854;9.302;2023-03-05T00:03:33;39.80;;;21.20;;
2099;SDS011;1055;48.854;9.302;2023-03-05T00:05:59;44.70;;;22.30;;
2099;SDS011;1055;48.854;9.302;2023-03-05T00:08:26;46.53;;;20.97;;
2099;SDS011;1055;48.854;9.302;2023-03-05T00:10:56;45.85;;;21.52;;
2099;SDS011;1055;48.854;9.302;2023-03-05T00:13:23;45.38;;;21.50;;
2099;SDS011;1055;48.854;9.302;2023-03-05T00:15:49;41.00;;;22.33;;
2099;SDS011;1055;48.854;9.302;2023-03-05T00:18:15;41.30;;;20.37;;
2099;SDS011;1055;48.854;9.302;2023-03-05T00:20:40;38.67;;;22.00;;
2099;SDS011;1055;48.854;9.302;2023-03-05T00:23:06;41.67;;;22.13;;
2099;SDS011;1055;48.854;9.302;2023-03-05T00:25:33;49.37;;;22.00;;
2099;SDS011;1055;48.854;9.302;2023-03-05T00:28:00;42.95;;;22.40;;
2099;SDS011;1055;48.854;9.302;2023-03-05T00:30:25;40.30;;;21.70;;
2099;SDS011;1055;48.854;9.302;2023-03-05T00:32:51;41.07;;;21.47;;
2099;SDS011;1055;48.854;9.302;2023-03-05T00:35:17;41.43;;;21.13;;
2099;SDS011;1055;48.854;9.302;2023-03-05T00:37:42;41.33;;;20.00;;
2099;SDS011;1055;48.854;9.302;2023-03-05T00:40:08;38.70;;;21.13;;
2099;SDS011;1055;48.854;9.302;2023-03-05T00:42:34;47.17;;;19.88;;
2099;SDS011;1055;48.854;9.302;2023-03-05T00:45:02;40.80;;;19.33;;
2099;SDS011;1055;48.854;9.302;2023-03-05T00:47:29;39.92;;;20.48;;
2099;SDS011;1055;48.854;9.302;2023-03-05T00:49:55;40.97;;;19.67;;
2099;SDS011;1055;48.854;9.302;2023-03-05T00:52:20;45.83;;;20.40;;
2099;SDS011;1055;48.854;9.302;2023-03-05T00:54:46;42.03;;;19.97;;
2099;SDS011;1055;48.854;9.302;2023-03-05T00:57:11;36.17;;;19.60;;
2099;SDS011;1055;48.854;9.302;2023-03-05T00:59:37;45.70;;;21.47;;
2099;SDS011;1055;48.854;9.302;2023-03-05T01:02:03;40.10;;;19.30;;
2099;SDS011;1055;48.854;9.302;2023-03-05T01:04:28;40.60;;;19.50;;
2099;SDS011;1055;48.854;9.302;2023-03-05T01:06:54;42.77;;;20.60;;
2099;SDS011;1055;48.854;9.302;2023-03-05T01:09:20;42.10;;;21.83;;
2099;SDS011;1055;48.854;9.302;2023-03-05T01:11:46;39.80;;;20.00;;
2099;SDS011;1055;48.854;9.302;2023-03-05T01:14:12;40.13;;;20.63;;
2099;SDS011;1055;48.854;9.302;2023-03-05T01:16:38;41.42;;;23.23;;
2099;SDS011;1055;48.854;9.302;2023-03-05T01:19:03;40.20;;;20.40;;
2099;SDS011;1055;48.854;9.302;2023-03-05T01:21:29;41.97;;;20.67;;
2099;SDS011;1055;48.854;9.302;2023-03-05T01:23:54;42.73;;;21.07;;
2099;SDS011;1055;48.854;9.302;2023-03-05T01:26:20;42.17;;;22.60;;
2099;SDS011;1055;48.854;9.302;2023-03-05T01:28:46;49.87;;;21.80;;
2099;SDS011;1055;48.854;9.302;2023-03-05T01:31:11;40.30;;;20.87;;
2099;SDS011;1055;48.854;9.302;2023-03-05T01:33:37;38.23;;;20.33;;
2099;SDS011;1055;48.854;9.302;2023-03-05T01:36:10;39.50;;;20.85;;
2099;SDS011;1055;48.854;9.302;2023-03-05T01:38:39;44.90;;;21.33;;
2099;SDS011;1055;48.854;9.302;2023-03-05T01:41:05;43.80;;;21.02;;
2099;SDS011;1055;48.854;9.302;2023-03-05T01:43:32;47.85;;;22.30;;
2099;SDS011;1055;48.854;9.302;2023-03-05T01:48:53;36.88;;;19.00;;
2099;SDS011;1055;48.854;9.302;2023-03-05T01:51:21;42.67;;;21.75;;
2099;SDS011;1055;48.854;9.302;2023-03-05T01:53:50;48.50;;;22.05;;
2099;SDS011;1055;48.854;9.302;2023-03-05T01:56:17;37.92;;;19.88;;
2099;SDS011;1055;48.854;9.302;2023-03-05T01:58:43;46.28;;;21.02;;
2099;SDS011;1055;48.854;9.302;2023-03-05T02:01:09;43.17;;;21.57;;
2099;SDS011;1055;48.854;9.302;2023-03-05T02:03:35;43.67;;;22.63;;
2099;SDS011;1055;48.854;9.302;2023-03-05T02:06:01;43.88;;;20.05;;
2099;SDS011;1055;48.854;9.302;2023-03-05T02:08:27;46.20;;;20.70;;
2099;SDS011;1055;48.854;9.302;2023-03-05T02:10:53;39.77;;;19.67;;
2099;SDS011;1055;48.854;9.302;2023-03-05T02:13:25;40.85;;;19.27;;
2099;SDS011;1055;48.854;9.302;2023-03-05T02:15:53;41.83;;;19.45;;
2099;SDS011;1055;48.854;9.302;2023-03-05T02:18:22;39.97;;;18.85;;
2099;SDS011;1055;48.854;9.302;2023-03-05T02:20:49;36.17;;;18.83;;
2099;SDS011;1055;48.854;9.302;2023-03-05T02:23:25;40.92;;;19.08;;
2099;SDS011;1055;48.854;9.302;2023-03-05T02:25:51;36.80;;;19.38;;
2099;SDS011;1055;48.854;9.302;2023-03-05T02:31:23;37.67;;;19.58;;
2099;SDS011;1055;48.854;9.302;2023-03-05T02:33:49;40.40;;;20.45;;
2099;SDS011;1055;48.854;9.302;2023-03-05T02:36:15;44.13;;;21.15;;
2099;SDS011;1055;48.854;9.302;2023-03-05T02:38:42;38.08;;;20.45;;
2099;SDS011;1055;48.854;9.302;2023-03-05T02:41:08;45.30;;;19.70;;
2099;SDS011;1055;48.854;9.302;2023-03-05T02:43:34;38.72;;;19.90;;
2099;SDS011;1055;48.854;9.302;2023-03-05T02:46:00;41.60;;;20.27;;
2099;SDS011;1055;48.854;9.302;2023-03-05T02:48:26;37.50;;;20.07;;
2099;SDS011;1055;48.854;9.302;2023-03-05T02:50:51;38.30;;;19.93;;
2099;SDS011;1055;48.854;9.302;2023-03-05T02:53:17;36.85;;;18.73;;
2099;SDS011;1055;48.854;9.302;2023-03-05T02:55:47;42.30;;;21.13;;
2099;SDS011;1055;48.854;9.302;2023-03-05T02:58:13;43.00;;;20.05;;
2099;SDS011;1055;48.854;9.302;2023-03-05T03:00:38;39.40;;;20.70;;
2099;SDS011;1055;48.854;9.302;2023-03-05T03:03:04;35.90;;;18.73;;
2099;SDS011;1055;48.854;9.302;2023-03-05T03:05:30;39.47;;;19.77;;
2099;SDS011;1055;48.854;9.302;2023-03-05T03:07:55;40.27;;;20.80;;
2099;SDS011;1055;48.854;9.302;2023-03-05T03:10:21;42.53;;;21.80;;
2099;SDS011;1055;48.854;9.302;2023-03-05T03:12:47;36.40;;;18.93;;
2099;SDS011;1055;48.854;9.302;2023-03-05T03:15:13;37.97;;;19.03;;
2099;SDS011;1055;48.854;9.302;2023-03-05T03:17:40;42.55;;;20.17;;
2099;SDS011;1055;48.854;9.302;2023-03-05T03:20:07;44.10;;;20.42;;
2099;SDS011;1055;48.854;9.302;2023-03-05T03:22:37;43.53;;;20.65;;
2099;SDS011;1055;48.854;9.302;2023-03-05T03:25:03;39.60;;;19.30;;
2099;SDS011;1055;48.854;9.302;2023-03-05T03:27:29;41.33;;;21.40;;
2099;SDS011;1055;48.854;9.302;2023-03-05T03:29:55;39.83;;;19.57;;
2099;SDS011;1055;48.854;9.302;2023-03-05T03:32:20;50.60;;;21.90;;
2099;SDS011;1055;48.854;9.302;2023-03-05T03:34:46;40.50;;;21.77;;
2099;SDS011;1055;48.854;9.302;2023-03-05T03:37:12;42.00;;;19.60;;
2099;SDS011;1055;48.854;9.302;2023-03-05T03:39:38;38.88;;;19.77;;
2099;SDS011;1055;48.854;9.302;2023-03-05T03:42:04;39.63;;;19.90;;
2099;SDS011;1055;48.854;9.302;2023-03-05T03:44:30;43.93;;;21.63;;
2099;SDS011;1055;48.854;9.302;2023-03-05T03:46:56;40.90;;;20.50;;
2099;SDS011;1055;48.854;9.302;2023-03-05T03:49:24;39.15;;;19.70;;
2099;SDS011;1055;48.854;9.302;2023-03-05T03:51:55;42.83;;;21.77;;
2099;SDS011;1055;48.854;9.302;2023-03-05T03:54:26;42.80;;;20.60;;
2099;SDS011;1055;48.854;9.302;2023-03-05T03:56:55;42.80;;;19.77;;
2099;SDS011;1055;48.854;9.302;2023-03-05T03:59:25;45.50;;;20.95;;
2099;SDS011;1055;48.854;9.302;2023-03-05T04:01:57;36.55;;;19.13;;
2099;SDS011;1055;48.854;9.302;2023-03-05T04:04:23;41.87;;;20.30;;
2099;SDS011;1055;48.854;9.302;2023-03-05T04:06:50;39.20;;;20.90;;
2099;SDS011;1055;48.854;9.302;2023-03-05T04:09:15;50.30;;;21.90;;
2099;SDS011;1055;48.854;9.302;2023-03-05T04:11:41;44.00;;;21.37;;
2099;SDS011;1055;48.854;9.302;2023-03-05T04:14:07;38.23;;;19.20;;
2099;SDS011;1055;48.854;9.302;2023-03-05T04:16:32;44.60;;;20.37;;
2099;SDS011;1055;48.854;9.302;2023-03-05T04:18:58;47.53;;;22.20;;
2099;SDS011;1055;48.854;9.302;2023-03-05T04:21:23;40.97;;;20.30;;
2099;SDS011;1055;48.854;9.302;2023-03-05T04:23:49;39.70;;;19.67;;
2099;SDS011;1055;48.854;9.302;2023-03-05T04:26:15;38.93;;;18.87;;
2099;SDS011;1055;48.854;9.302;2023-03-05T04:28:40;40.27;;;19.80;;
2099;SDS011;1055;48.854;9.302;2023-03-05T04:31:06;43.70;;;20.90;;
2099;SDS011;1055;48.854;9.302;2023-03-05T04:33:31;44.43;;;19.80;;
2099;SDS011;1055;48.854;9.302;2023-03-05T04:35:57;41.97;;;18.80;;
2099;SDS011;1055;48.854;9.302;2023-03-05T04:38:23;38.67;;;17.90;;
2099;SDS011;1055;48.854;9.302;2023-03-05T04:40:49;44.40;;;19.83;;
2099;SDS011;1055;48.854;9.302;2023-03-05T04:43:14;37.37;;;17.37;;
2099;SDS011;1055;48.854;9.302;2023-03-05T04:45:40;43.40;;;18.87;;
2099;SDS011;1055;48.854;9.302;2023-03-05T04:48:07;38.35;;;18.20;;
2099;SDS011;1055;48.854;9.302;2023-03-05T04:50:33;38.45;;;16.80;;
2099;SDS011;1055;48.854;9.302;2023-03-05T04:52:59;36.00;;;17.03;;
2099;SDS011;1055;48.854;9.302;2023-03-05T04:55:25;45.00;;;20.67;;
2099;SDS011;1055;48.854;9.302;2023-03-05T04:57:51;40.85;;;16.08;;
2099;SDS011;1055;48.854;9.302;2023-03-05T05:00:16;37.40;;;16.80;;
2099;SDS011;1055;48.854;9.302;2023-03-05T05:02:43;35.67;;;15.93;;
2099;SDS011;1055;48.854;9.302;2023-03-05T05:05:13;32.70;;;16.50;;
2099;SDS011;1055;48.854;9.302;2023-03-05T05:07:40;35.70;;;18.33;;
2099;SDS011;1055;48.854;9.302;2023-03-05T05:10:07;35.35;;;16.60;;
2099;SDS011;1055;48.854;9.302;2023-03-05T05:12:33;29.55;;;14.30;;
2099;SDS011;1055;48.854;9.302;2023-03-05T05:14:59;28.93;;;14.00;;
2099;SDS011;1055;48.854;9.302;2023-03-05T05:17:25;31.50;;;14.43;;
2099;SDS011;1055;48.854;9.302;2023-03-05T05:19:54;28.15;;;14.32;;
2099;SDS011;1055;48.854;9.302;2023-03-05T05:22:19;32.27;;;15.00;;
2099;SDS011;1055;48.854;9.302;2023-03-05T05:24:45;26.67;;;12.57;;
2099;SDS011;1055;48.854;9.302;2023-03-05T05:27:10;29.17;;;11.37;;
2099;SDS011;1055;48.854;9.302;2023-03-05T05:29:36;30.23;;;11.30;;
2099;SDS011;1055;48.854;9.302;2023-03-05T05:32:02;24.55;;;11.20;;
2099;SDS011;1055;48.854;9.302;2023-03-05T05:34:28;28.03;;;12.30;;
2099;SDS011;1055;48.854;9.302;2023-03-05T05:36:53;27.17;;;11.80;;
2099;SDS011;1055;48.854;9.302;2023-03-05T05:39:19;21.07;;;10.27;;
2099;SDS011;1055;48.854;9.302;2023-03-05T05:41:45;27.53;;;11.10;;
2099;SDS011;1055;48.854;9.302;2023-03-05T05:44:13;27.88;;;11.50;;
2099;SDS011;1055;48.854;9.302;2023-03-05T05:46:39;27.87;;;11.20;;
2099;SDS011;1055;48.854;9.302;2023-03-05T05:49:04;24.70;;;10.97;;
2099;SDS011;1055;48.854;9.302;2023-03-05T05:51:30;23.17;;;11.07;;
2099;SDS011;1055;48.854;9.302;2023-03-05T05:53:56;27.67;;;12.00;;
2099;SDS011;1055;48.854;9.302;2023-03-05T05:56:21;29.23;;;11.60;;
2099;SDS011;1055;48.854;9.302;2023-03-05T05:58:47;25.70;;;10.93;;
2099;SDS011;1055;48.854;9.302;2023-03-05T06:01:17;25.05;;;10.82;;
2099;SDS011;1055;48.854;9.302;2023-03-05T06:03:49;27.05;;;10.48;;
2099;SDS011;1055;48.854;9.302;2023-03-05T06:06:16;30.15;;;12.93;;
2099;SDS011;1055;48.854;9.302;2023-03-05T06:08:43;24.92;;;10.23;;
2099;SDS011;1055;48.854;9.302;2023-03-05T06:11:09;20.10;;;11.23;;
2099;SDS011;1055;48.854;9.302;2023-03-05T06:13:35;26.85;;;11.40;;
2099;SDS011;1055;48.854;9.302;2023-03-05T06:16:01;25.70;;;12.13;;
2099;SDS011;1055;48.854;9.302;2023-03-05T06:18:29;29.05;;;12.10;;
2099;SDS011;1055;48.854;9.302;2023-03-05T06:20:56;29.50;;;11.83;;
2099;SDS011;1055;48.854;9.302;2023-03-05T06:23:23;22.83;;;10.50;;
2099;SDS011;1055;48.854;9.302;2023-03-05T06:25:50;26.02;;;11.20;;
2099;SDS011;1055;48.854;9.302;2023-03-05T06:28:15;26.93;;;12.20;;
2099;SDS011;1055;48.854;9.302;2023-03-05T06:30:41;24.73;;;12.43;;
2099;SDS011;1055;48.854;9.302;2023-03-05T06:33:07;30.20;;;12.00;;
2099;SDS011;1055;48.854;9.302;2023-03-05T06:35:32;25.53;;;11.40;;
2099;SDS011;1055;48.854;9.302;2023-03-05T06:37:58;26.43;;;12.43;;
2099;SDS011;1055;48.854;9.302;2023-03-05T06:40:24;27.67;;;11.27;;
2099;SDS011;1055;48.854;9.302;2023-03-05T06:42:49;28.23;;;11.67;;
2099;SDS011;1055;48.854;9.302;2023-03-05T06:45:15;27.13;;;12.90;;
2099;SDS011;1055;48.854;9.302;2023-03-05T06:47:41;27.83;;;12.30;;
2099;SDS011;1055;48.854;9.302;2023-03-05T06:50:07;25.98;;;12.00;;
2099;SDS011;1055;48.854;9.302;2023-03-05T06:52:33;27.08;;;11.70;;
2099;SDS011;1055;48.854;9.302;2023-03-05T06:54:58;28.77;;;14.17;;
2099;SDS011;1055;48.854;9.302;2023-03-05T06:57:24;27.60;;;12.80;;
2099;SDS011;1055;48.854;9.302;2023-03-05T06:59:50;30.30;;;13.43;;
2099;SDS011;1055;48.854;9.302;2023-03-05T07:02:16;25.98;;;11.98;;
2099;SDS011;1055;48.854;9.302;2023-03-05T07:04:43;34.53;;;15.75;;
2099;SDS011;1055;48.854;9.302;2023-03-05T07:07:08;26.10;;;13.23;;
2099;SDS011;1055;48.854;9.302;2023-03-05T07:09:34;30.00;;;12.37;;
2099;SDS011;1055;48.854;9.302;2023-03-05T07:12:06;31.35;;;13.00;;
2099;SDS011;1055;48.854;9.302;2023-03-05T07:14:34;24.98;;;12.90;;
2099;SDS011;1055;48.854;9.302;2023-03-05T07:17:00;25.65;;;12.75;;
2099;SDS011;1055;48.854;9.302;2023-03-05T07:19:26;24.37;;;11.40;;
2099;SDS011;1055;48.854;9.302;2023-03-05T07:21:51;28.13;;;13.00;;
2099;SDS011;1055;48.854;9.302;2023-03-05T07:24:17;28.33;;;12.80;;
2099;SDS011;1055;48.854;9.302;2023-03-05T07:26:42;29.17;;;13.57;;
2099;SDS011;1055;48.854;9.302;2023-03-05T07:29:08;30.27;;;13.07;;
2099;SDS011;1055;48.854;9.302;2023-03-05T07:31:34;26.47;;;11.90;;
2099;SDS011;1055;48.854;9.302;2023-03-05T07:34:00;25.90;;;12.77;;
2099;SDS011;1055;48.854;9.302;2023-03-05T07:36:27;30.70;;;12.90;;
2099;SDS011;1055;48.854;9.302;2023-03-05T07:38:53;27.55;;;12.75;;
2099;SDS011;1055;48.854;9.302;2023-03-05T07:41:19;31.13;;;13.40;;
2099;SDS011;1055;48.854;9.302;2023-03-05T07:43:46;27.98;;;13.27;;
2099;SDS011;1055;48.854;9.302;2023-03-05T07:46:14;32.58;;;13.30;;
2099;SDS011;1055;48.854;9.302;2023-03-05T07:48:41;28.88;;;14.50;;
2099;SDS011;1055;48.854;9.302;2023-03-05T07:51:08;26.10;;;13.03;;
2099;SDS011;1055;48.854;9.302;2023-03-05T07:53:39;25.00;;;12.65;;
2099;SDS011;1055;48.854;9.302;2023-03-05T07:56:05;24.75;;;12.70;;
2099;SDS011;1055;48.854;9.302;2023-03-05T07:58:31;27.20;;;13.77;;
2099;SDS011;1055;48.854;9.302;2023-03-05T08:00:57;25.63;;;11.07;;
2099;SDS011;1055;48.854;9.302;2023-03-05T08:03:22;29.50;;;13.30;;
2099;SDS011;1055;48.854;9.302;2023-03-05T08:05:48;25.70;;;12.30;;
2099;SDS011;1055;48.854;9.302;2023-03-05T08:08:14;30.10;;;11.67;;
2099;SDS011;1055;48.854;9.302;2023-03-05T08:10:40;27.88;;;12.63;;
2099;SDS011;1055;48.854;9.302;2023-03-05T08:13:06;28.20;;;12.00;;
2099;SDS011;1055;48.854;9.302;2023-03-05T08:15:32;27.55;;;13.43;;
2099;SDS011;1055;48.854;9.302;2023-03-05T08:17:58;24.70;;;11.60;;
2099;SDS011;1055;48.854;9.302;2023-03-05T08:20:24;24.10;;;11.05;;
2099;SDS011;1055;48.854;9.302;2023-03-05T08:22:50;23.63;;;10.60;;
2099;SDS011;1055;48.854;9.302;2023-03-05T08:25:16;26.83;;;13.17;;
2099;SDS011;1055;48.854;9.302;2023-03-05T08:27:42;31.23;;;13.03;;
2099;SDS011;1055;48.854;9.302;2023-03-05T08:30:10;26.73;;;12.57;;
2099;SDS011;1055;48.854;9.302;2023-03-05T08:32:39;25.30;;;12.50;;
2099;SDS011;1055;48.854;9.302;2023-03-05T08:35:05;26.60;;;12.90;;
2099;SDS011;1055;48.854;9.302;2023-03-05T08:37:31;30.10;;;12.57;;
2099;SDS011;1055;48.854;9.302;2023-03-05T08:39:57;24.55;;;11.50;;
2099;SDS011;1055;48.854;9.302;2023-03-05T08:42:24;24.67;;;12.10;;
2099;SDS011;1055;48.854;9.302;2023-03-05T08:44:50;27.10;;;12.65;;
2099;SDS011;1055;48.854;9.302;2023-03-05T08:47:16;23.93;;;11.63;;
2099;SDS011;1055;48.854;9.302;2023-03-05T08:49:42;25.25;;;12.38;;
2099;SDS011;1055;48.854;9.302;2023-03-05T08:52:08;26.13;;;12.90;;
2099;SDS011;1055;48.854;9.302;2023-03-05T08:54:35;24.40;;;12.43;;
2099;SDS011;1055;48.854;9.302;2023-03-05T08:57:02;25.42;;;12.82;;
2099;SDS011;1055;48.854;9.302;2023-03-05T08:59:28;27.80;;;12.55;;
2099;SDS011;1055;48.854;9.302;2023-03-05T09:01:54;24.57;;;12.33;;
2099;SDS011;1055;48.854;9.302;2023-03-05T09:04:20;27.43;;;13.03;;
2099;SDS011;1055;48.854;9.302;2023-03-05T09:06:45;28.50;;;12.60;;
2099;SDS011;1055;48.854;9.302;2023-03-05T09:09:11;26.20;;;11.93;;
2099;SDS011;1055;48.854;9.302;2023-03-05T09:11:38;29.38;;;11.65;;
2099;SDS011;1055;48.854;9.302;2023-03-05T09:14:04;25.87;;;12.93;;
2099;SDS011;1055;48.854;9.302;2023-03-05T09:16:31;24.10;;;11.90;;
2099;SDS011;1055;48.854;9.302;2023-03-05T09:18:57;26.27;;;11.88;;
2099;SDS011;1055;48.854;9.302;2023-03-05T09:21:24;25.65;;;11.65;;
2099;SDS011;1055;48.854;9.302;2023-03-05T09:23:50;24.70;;;12.57;;
2099;SDS011;1055;48.854;9.302;2023-03-05T09:26:17;27.52;;;12.10;;
2099;SDS011;1055;48.854;9.302;2023-03-05T09:28:44;23.67;;;11.75;;
2099;SDS011;1055;48.854;9.302;2023-03-05T09:31:10;26.45;;;12.25;;
2099;SDS011;1055;48.854;9.302;2023-03-05T09:33:37;27.65;;;12.43;;
2099;SDS011;1055;48.854;9.302;2023-03-05T09:36:03;27.40;;;11.65;;
2099;SDS011;1055;48.854;9.302;2023-03-05T09:38:31;24.70;;;12.48;;
2099;SDS011;1055;48.854;9.302;2023-03-05T09:40:58;27.38;;;12.32;;
2099;SDS011;1055;48.854;9.302;2023-03-05T09:46:34;28.73;;;13.13;;
2099;SDS011;1055;48.854;9.302;2023-03-05T09:49:29;26.50;;;13.60;;
2099;SDS011;1055;48.854;9.302;2023-03-05T09:51:59;28.33;;;12.70;;
2099;SDS011;1055;48.854;9.302;2023-03-05T09:54:42;29.73;;;13.63;;
2099;SDS011;1055;48.854;9.302;2023-03-05T09:57:12;24.33;;;12.27;;
2099;SDS011;1055;48.854;9.302;2023-03-05T10:00:43;26.23;;;13.10;;
2099;SDS011;1055;48.854;9.302;2023-03-05T10:02:55;29.55;;;13.10;;
2099;SDS011;1055;48.854;9.302;2023-03-05T10:05:26;33.78;;;14.05;;
2099;SDS011;1055;48.854;9.302;2023-03-05T10:08:09;26.33;;;13.55;;
2099;SDS011;1055;48.854;9.302;2023-03-05T10:10:42;27.95;;;13.88;;
2099;SDS011;1055;48.854;9.302;2023-03-05T10:13:24;36.92;;;14.68;;
2099;SDS011;1055;48.854;9.302;2023-03-05T10:16:01;24.20;;;12.70;;
2099;SDS011;1055;48.854;9.302;2023-03-05T10:18:56;25.10;;;13.23;;
2099;SDS011;1055;48.854;9.302;2023-03-05T10:21:39;25.95;;;12.07;;
2099;SDS011;1055;48.854;9.302;2023-03-05T10:24:46;29.17;;;13.20;;
2099;SDS011;1055;48.854;9.302;2023-03-05T10:27:20;26.83;;;13.00;;
2099;SDS011;1055;48.854;9.302;2023-03-05T10:32:34;27.02;;;13.90;;
2099;SDS011;1055;48.854;9.302;2023-03-05T10:40:41;29.77;;;13.27;;
2099;SDS011;1055;48.854;9.302;2023-03-05T10:45:56;24.75;;;13.02;;
2099;SDS011;1055;48.854;9.302;2023-03-05T10:51:32;27.15;;;13.60;;
2099;SDS011;1055;48.854;9.302;2023-03-05T10:59:46;26.52;;;13.75;;
2099;SDS011;1055;48.854;9.302;2023-03-05T11:02:16;31.65;;;14.15;;
2099;SDS011;1055;48.854;9.302;2023-03-05T11:04:48;29.63;;;14.30;;
2099;SDS011;1055;48.854;9.302;2023-03-05T11:09:43;27.70;;;13.77;;
2099;SDS011;1055;48.854;9.302;2023-03-05T11:12:39;27.33;;;12.90;;
2099;SDS011;1055;48.854;9.302;2023-03-05T11:28:30;28.05;;;14.57;;
2099;SDS011;1055;48.854;9.302;2023-03-05T11:30:59;31.58;;;17.02;;
2099;SDS011;1055;48.854;9.302;2023-03-05T11:33:27;30.90;;;15.75;;
2099;SDS011;1055;48.854;9.302;2023-03-05T11:36:11;29.48;;;14.50;;
2099;SDS011;1055;48.854;9.302;2023-03-05T11:41:22;29.60;;;15.40;;
2099;SDS011;1055;48.854;9.302;2023-03-05T11:44:03;32.65;;;15.77;;
2099;SDS011;1055;48.854;9.302;2023-03-05T11:46:51;31.75;;;16.27;;
2099;SDS011;1055;48.854;9.302;2023-03-05T11:49:21;30.60;;;15.50;;
2099;SDS011;1055;48.854;9.302;2023-03-05T11:54:21;28.40;;;15.15;;
2099;SDS011;1055;48.854;9.302;2023-03-05T11:56:50;28.65;;;15.13;;
2099;SDS011;1055;48.854;9.302;2023-03-05T11:59:25;29.05;;;14.82;;
2099;SDS011;1055;48.854;9.302;2023-03-05T12:01:55;33.42;;;15.43;;
2099;SDS011;1055;48.854;9.302;2023-03-05T12:04:22;24.25;;;12.90;;
2099;SDS011;1055;48.854;9.302;2023-03-05T12:06:58;28.75;;;13.93;;
2099;SDS011;1055;48.854;9.302;2023-03-05T12:11:55;23.10;;;12.80;;
2099;SDS011;1055;48.854;9.302;2023-03-05T12:14:35;24.05;;;13.25;;
2099;SDS011;1055;48.854;9.302;2023-03-05T12:17:13;25.48;;;12.80;;
2099;SDS011;1055;48.854;9.302;2023-03-05T12:22:15;29.80;;;14.17;;
2099;SDS011;1055;48.854;9.302;2023-03-05T12:25:14;31.80;;;15.57;;
2099;SDS011;1055;48.854;9.302;2023-03-05T12:28:13;29.00;;;14.30;;
2099;SDS011;1055;48.854;9.302;2023-03-05T12:31:00;30.40;;;14.88;;
2099;SDS011;1055;48.854;9.302;2023-03-05T12:38:49;26.33;;;14.90;;
2099;SDS011;1055;48.854;9.302;2023-03-05T12:46:31;28.77;;;16.25;;
2099;SDS011;1055;48.854;9.302;2023-03-05T12:48:57;30.98;;;17.08;;
2099;SDS011;1055;48.854;9.302;2023-03-05T12:51:30;25.15;;;14.48;;
2099;SDS011;1055;48.854;9.302;2023-03-05T12:54:11;38.88;;;23.02;;
2099;SDS011;1055;48.854;9.302;2023-03-05T12:57:14;31.05;;;16.35;;
2099;SDS011;1055;48.854;9.302;2023-03-05T12:59:44;33.60;;;17.05;;
2099;SDS011;1055;48.854;9.302;2023-03-05T13:02:57;25.50;;;15.10;;
2099;SDS011;1055;48.854;9.302;2023-03-05T13:05:22;26.75;;;14.73;;
2099;SDS011;1055;48.854;9.302;2023-03-05T13:07:49;28.92;;;15.98;;
2099;SDS011;1055;48.854;9.302;2023-03-05T13:10:26;29.13;;;16.08;;
2099;SDS011;1055;48.854;9.302;2023-03-05T13:12:53;28.25;;;14.82;;
2099;SDS011;1055;48.854;9.302;2023-03-05T13:15:21;24.67;;;14.00;;
2099;SDS011;1055;48.854;9.302;2023-03-05T13:17:53;30.85;;;14.40;;
2099;SDS011;1055;48.854;9.302;2023-03-05T13:20:38;30.70;;;15.75;;
2099;SDS011;1055;48.854;9.302;2023-03-05T13:28:43;28.98;;;15.43;;
2099;SDS011;1055;48.854;9.302;2023-03-05T13:31:26;27.40;;;14.43;;
2099;SDS011;1055;48.854;9.302;2023-03-05T13:33:53;32.70;;;14.23;;
2099;SDS011;1055;48.854;9.302;2023-03-05T13:36:23;32.53;;;15.65;;
2099;SDS011;1055;48.854;9.302;2023-03-05T13:38:49;26.25;;;14.80;;
2099;SDS011;1055;48.854;9.302;2023-03-05T13:43:48;28.00;;;14.35;;
2099;SDS011;1055;48.854;9.302;2023-03-05T13:48:51;26.15;;;14.07;;
2099;SDS011;1055;48.854;9.302;2023-03-05T13:51:17;23.67;;;13.60;;
2099;SDS011;1055;48.854;9.302;2023-03-05T13:53:42;26.10;;;13.27;;
2099;SDS011;1055;48.854;9.302;2023-03-05T13:56:16;21.13;;;13.40;;
2099;SDS011;1055;48.854;9.302;2023-03-05T13:58:47;22.63;;;11.90;;
2099;SDS011;1055;48.854;9.302;2023-03-05T14:03:50;22.08;;;12.00;;
2099;SDS011;1055;48.854;9.302;2023-03-05T14:06:17;20.17;;;10.65;;
2099;SDS011;1055;48.854;9.302;2023-03-05T14:08:53;20.55;;;11.50;;
2099;SDS011;1055;48.854;9.302;2023-03-05T14:11:28;23.88;;;12.73;;
2099;SDS011;1055;48.854;9.302;2023-03-05T14:13:59;23.90;;;12.30;;
2099;SDS011;1055;48.854;9.302;2023-03-05T14:16:32;22.33;;;12.30;;
2099;SDS011;1055;48.854;9.302;2023-03-05T14:19:01;22.60;;;12.37;;
2099;SDS011;1055;48.854;9.302;2023-03-05T14:21:44;18.83;;;10.60;;
2099;SDS011;1055;48.854;9.302;2023-03-05T14:24:13;23.70;;;11.50;;
2099;SDS011;1055;48.854;9.302;2023-03-05T14:26:55;20.35;;;10.45;;
2099;SDS011;1055;48.854;9.302;2023-03-05T14:29:23;22.50;;;11.10;;
2099;SDS011;1055;48.854;9.302;2023-03-05T14:31:51;25.88;;;11.95;;
2099;SDS011;1055;48.854;9.302;2023-03-05T14:34:27;25.63;;;12.13;;
2099;SDS011;1055;48.854;9.302;2023-03-05T14:36:57;22.73;;;13.50;;
2099;SDS011;1055;48.854;9.302;2023-03-05T14:39:25;24.52;;;12.45;;
2099;SDS011;1055;48.854;9.302;2023-03-05T14:44:51;24.88;;;11.75;;
2099;SDS011;1055;48.854;9.302;2023-03-05T14:47:17;24.98;;;12.77;;
2099;SDS011;1055;48.854;9.302;2023-03-05T14:49:43;24.57;;;13.17;;
2099;SDS011;1055;48.854;9.302;2023-03-05T14:52:11;21.10;;;12.07;;
2099;SDS011;1055;48.854;9.302;2023-03-05T14:54:39;22.67;;;11.10;;
2099;SDS011;1055;48.854;9.302;2023-03-05T14:57:05;24.90;;;12.37;;
2099;SDS011;1055;48.854;9.302;2023-03-05T14:59:30;25.83;;;14.37;;
2099;SDS011;1055;48.854;9.302;2023-03-05T15:01:56;23.97;;;11.03;;
2099;SDS011;1055;48.854;9.302;2023-03-05T15:04:22;21.33;;;11.27;;
2099;SDS011;1055;48.854;9.302;2023-03-05T15:06:48;26.40;;;13.63;;
2099;SDS011;1055;48.854;9.302;2023-03-05T15:09:16;21.98;;;12.48;;
2099;SDS011;1055;48.854;9.302;2023-03-05T15:11:46;24.15;;;11.35;;
2099;SDS011;1055;48.854;9.302;2023-03-05T15:14:22;24.70;;;12.55;;
2099;SDS011;1055;48.854;9.302;2023-03-05T15:16:49;21.33;;;11.40;;
2099;SDS011;1055;48.854;9.302;2023-03-05T15:19:17;22.40;;;13.18;;
2099;SDS011;1055;48.854;9.302;2023-03-05T15:21:42;27.03;;;13.37;;
2099;SDS011;1055;48.854;9.302;2023-03-05T15:24:09;21.88;;;11.27;;
2099;SDS011;1055;48.854;9.302;2023-03-05T15:26:34;25.63;;;13.00;;
2099;SDS011;1055;48.854;9.302;2023-03-05T15:29:01;23.90;;;13.07;;
2099;SDS011;1055;48.854;9.302;2023-03-05T15:31:26;24.47;;;12.53;;
2099;SDS011;1055;48.854;9.302;2023-03-05T15:33:54;23.10;;;12.70;;
2099;SDS011;1055;48.854;9.302;2023-03-05T15:36:19;23.97;;;12.50;;
2099;SDS011;1055;48.854;9.302;2023-03-05T15:38:45;21.07;;;11.37;;
2099;SDS011;1055;48.854;9.302;2023-03-05T15:41:12;20.40;;;11.05;;
2099;SDS011;1055;48.854;9.302;2023-03-05T15:43:37;21.00;;;8.87;;
2099;SDS011;1055;48.854;9.302;2023-03-05T15:46:04;21.10;;;10.57;;
2099;SDS011;1055;48.854;9.302;2023-03-05T15:48:30;21.00;;;10.82;;
2099;SDS011;1055;48.854;9.302;2023-03-05T15:50:56;22.67;;;11.67;;
2099;SDS011;1055;48.854;9.302;2023-03-05T15:53:21;21.70;;;11.80;;
2099;SDS011;1055;48.854;9.302;2023-03-05T15:55:47;24.03;;;12.00;;
2099;SDS011;1055;48.854;9.302;2023-03-05T15:58:14;26.17;;;13.40;;
2099;SDS011;1055;48.854;9.302;2023-03-05T16:00:41;24.88;;;12.23;;
2099;SDS011;1055;48.854;9.302;2023-03-05T16:03:07;23.83;;;12.30;;
2099;SDS011;1055;48.854;9.302;2023-03-05T16:05:33;18.90;;;10.20;;
2099;SDS011;1055;48.854;9.302;2023-03-05T16:08:00;23.48;;;12.35;;
2099;SDS011;1055;48.854;9.302;2023-03-05T16:10:26;24.17;;;12.67;;
2099;SDS011;1055;48.854;9.302;2023-03-05T16:12:58;21.83;;;12.43;;
2099;SDS011;1055;48.854;9.302;2023-03-05T16:15:28;22.27;;;11.25;;
2099;SDS011;1055;48.854;9.302;2023-03-05T16:17:55;22.33;;;10.80;;